createdAt,value
2023-03-29T00:02:18.596Z,98369.63
2023-03-29T00:04:48.192Z,98367.72
2023-03-29T00:07:17.098Z,98371.25
2023-03-29T00:09:47.741Z,98369.63
2023-03-29T00:12:18.918Z,98369.63
2023-03-29T00:14:50.789Z,98363.63
2023-03-29T00:17:20.720Z,98371.59
2023-03-29T00:19:51.130Z,98369.94
2023-03-29T00:22:21.394Z,98376.78
2023-03-29T00:24:51.070Z,98366.38
2023-03-29T00:27:21.234Z,98363.28
2023-03-29T00:29:51.709Z,98369.44
2023-03-29T00:32:21.778Z,98365.38
2023-03-29T00:34:51.839Z,98363.72
2023-03-29T00:37:22.626Z,98360.50
2023-03-29T00:39:52.676Z,98353.66
2023-03-29T00:42:22.822Z,98348.13
2023-03-29T00:45:05.038Z,98354.47
2023-03-29T00:47:42.234Z,98353.66
2023-03-29T00:50:19.248Z,98350.41
2023-03-29T00:52:56.909Z,98347.81
2023-03-29T00:55:32.209Z,98350.72
2023-03-29T00:58:05.007Z,98347.13
2023-03-29T01:00:43.033Z,98331.53
2023-03-29T01:03:25.480Z,98335.63
2023-03-29T01:06:03.802Z,98330.72
2023-03-29T01:08:41.799Z,98326.34
2023-03-29T01:11:19.242Z,98321.16
2023-03-29T01:13:58.393Z,98317.59
2023-03-29T01:16:33.095Z,98319.53
2023-03-29T01:19:02.596Z,98324.75
2023-03-29T01:21:40.522Z,98318.72
2023-03-29T01:24:42.392Z,98322.94
2023-03-29T01:27:22.910Z,98316.25
2023-03-29T01:30:02.772Z,98315.44
2023-03-29T01:32:42.221Z,98304.56
2023-03-29T01:35:20.118Z,98297.25
2023-03-29T01:37:57.815Z,98293.84
2023-03-29T01:40:28.936Z,98299.03
2023-03-29T01:43:19.579Z,98296.75
2023-03-29T01:46:02.500Z,98291.19
2023-03-29T01:48:44.149Z,98282.38
2023-03-29T01:51:20.234Z,98288.19
2023-03-29T01:53:59.404Z,98276.50
2023-03-29T01:56:37.260Z,98277.13
2023-03-29T01:59:12.900Z,98275.22
2023-03-29T02:01:51.825Z,98286.06
2023-03-29T02:04:29.842Z,98283.94
2023-03-29T02:07:03.959Z,98268.63
2023-03-29T02:09:36.304Z,98271.72
2023-03-29T02:12:09.785Z,98268.63
2023-03-29T02:14:39.536Z,98270.69
2023-03-29T02:17:22.593Z,98264.63
2023-03-29T02:20:01.360Z,98262.34
2023-03-29T02:22:41.100Z,98257.47
2023-03-29T02:25:13.575Z,98255.53
2023-03-29T02:27:43.426Z,98265.91
2023-03-29T02:30:18.775Z,98270.13
2023-03-29T02:32:59.619Z,98264.28
2023-03-29T02:35:36.473Z,98267.97
2023-03-29T02:38:11.294Z,98273.34
2023-03-29T02:40:43.258Z,98267.47
2023-03-29T02:43:16.261Z,98255.31
2023-03-29T02:45:47.737Z,98256.41
2023-03-29T02:48:24.118Z,98261.75
2023-03-29T02:51:02.144Z,98262.56
2023-03-29T02:53:40.817Z,98267.91
2023-03-29T02:56:12.822Z,98261.91
2023-03-29T02:58:42.319Z,98258.63
2023-03-29T03:01:13.476Z,98251.84
2023-03-29T03:03:45.707Z,98253.91
2023-03-29T03:06:17.068Z,98257.34
2023-03-29T03:08:46.481Z,98254.56
2023-03-29T03:11:16.970Z,98256.03
2023-03-29T03:13:47.744Z,98246.66
2023-03-29T03:16:17.424Z,98245.00
2023-03-29T03:18:51.112Z,98245.00
2023-03-29T03:21:21.595Z,98248.56
2023-03-29T03:23:51.081Z,98245.00
2023-03-29T03:26:20.803Z,98246.78
2023-03-29T03:28:50.440Z,98239.97
2023-03-29T03:31:20.140Z,98241.25
2023-03-29T03:33:51.574Z,98233.59
2023-03-29T03:36:26.475Z,98242.03
2023-03-29T03:38:57.157Z,98236.84
2023-03-29T03:41:27.249Z,98233.78
2023-03-29T03:43:56.748Z,98237.63
2023-03-29T03:46:28.359Z,98230.94
2023-03-29T03:49:01.905Z,98232.59
2023-03-29T03:51:34.610Z,98230.94
2023-03-29T03:54:05.289Z,98236.94
2023-03-29T03:56:35.328Z,98231.25
2023-03-29T03:59:05.357Z,98230.59
2023-03-29T04:01:35.991Z,98237.06
2023-03-29T04:04:09.144Z,98234.75
2023-03-29T04:06:41.186Z,98232.91
2023-03-29T04:09:14.563Z,98231.75
2023-03-29T04:11:44.230Z,98243.38
2023-03-29T04:14:13.794Z,98235.59
2023-03-29T04:16:43.190Z,98229.06
2023-03-29T04:19:15.408Z,98231.66
2023-03-29T04:21:46.091Z,98230.72
2023-03-29T04:24:15.861Z,98221.44
2023-03-29T04:26:45.165Z,98239.06
2023-03-29T04:29:14.680Z,98237.59
2023-03-29T04:31:44.612Z,98231.28
2023-03-29T04:34:15.432Z,98238.09
2023-03-29T04:36:44.750Z,98233.88
2023-03-29T04:39:15.098Z,98231.03
2023-03-29T04:41:46.867Z,98223.88
2023-03-29T04:44:17.000Z,98226.19
2023-03-29T04:46:47.666Z,98226.03
2023-03-29T04:49:19.831Z,98215.97
2023-03-29T04:51:49.656Z,98218.56
2023-03-29T04:54:19.870Z,98214.84
2023-03-29T04:56:50.421Z,98218.09
2023-03-29T04:59:19.402Z,98216.19
2023-03-29T05:01:47.838Z,98208.03
2023-03-29T05:04:18.917Z,98216.75
2023-03-29T05:06:49.079Z,98217.44
2023-03-29T05:09:18.272Z,98218.09
2023-03-29T05:11:48.766Z,98215.19
2023-03-29T05:14:19.010Z,98212.91
2023-03-29T05:16:48.779Z,98212.09
2023-03-29T05:19:21.762Z,98215.50
2023-03-29T05:21:51.547Z,98221.69
2023-03-29T05:24:22.023Z,98218.09
2023-03-29T05:26:53.405Z,98223.28
2023-03-29T05:29:24.672Z,98221.69
2023-03-29T05:31:54.355Z,98225.56
2023-03-29T05:34:26.492Z,98222.47
2023-03-29T05:36:57.495Z,98221.94
2023-03-29T05:39:28.402Z,98222.13
2023-03-29T05:41:59.198Z,98230.41
2023-03-29T05:44:29.553Z,98221.69
2023-03-29T05:46:59.292Z,98225.22
2023-03-29T05:49:30.569Z,98226.03
2023-03-29T05:51:59.407Z,98233.53
2023-03-29T05:54:29.941Z,98229.59
2023-03-29T05:56:58.959Z,98219.09
2023-03-29T05:59:30.283Z,98226.56
2023-03-29T06:02:03.869Z,98229.81
2023-03-29T06:04:35.213Z,98228.16
2023-03-29T06:07:06.109Z,98237.44
2023-03-29T06:09:35.556Z,98236.63
2023-03-29T06:12:06.094Z,98234.03
2023-03-29T06:14:36.388Z,98234.56
2023-03-29T06:17:07.312Z,98233.72
2023-03-29T06:19:38.825Z,98230.03
2023-03-29T06:22:09.622Z,98232.59
2023-03-29T06:24:39.379Z,98234.09
2023-03-29T06:27:10.657Z,98240.59
2023-03-29T06:29:41.983Z,98236.09
2023-03-29T06:32:11.942Z,98235.63
2023-03-29T06:35:01.636Z,98231.78
2023-03-29T06:37:32.017Z,98237.31
2023-03-29T06:40:07.535Z,98242.22
2023-03-29T06:42:37.632Z,98240.94
2023-03-29T06:45:09.978Z,98248.25
2023-03-29T06:47:39.035Z,98242.94
2023-03-29T06:50:15.152Z,98241.78
2023-03-29T06:52:45.381Z,98244.78
2023-03-29T06:55:16.612Z,98257.47
2023-03-29T06:57:45.661Z,98244.03
2023-03-29T07:00:19.806Z,98251.34
2023-03-29T07:02:50.236Z,98255.13
2023-03-29T07:05:22.516Z,98258.88
2023-03-29T07:07:57.256Z,98256.66
2023-03-29T07:10:33.040Z,98251.16
2023-03-29T07:13:02.941Z,98244.00
2023-03-29T07:15:33.926Z,98249.69
2023-03-29T07:18:04.360Z,98246.97
2023-03-29T07:20:34.924Z,98247.78
2023-03-29T07:23:04.967Z,98247.63
2023-03-29T07:25:35.950Z,98244.56
2023-03-29T07:28:06.347Z,98247.34
2023-03-29T07:30:36.289Z,98253.19
2023-03-29T07:33:07.500Z,98251.25
2023-03-29T07:35:40.381Z,98250.81
2023-03-29T07:38:10.032Z,98252.91
2023-03-29T07:40:39.178Z,98254.38
2023-03-29T07:43:11.733Z,98255.22
2023-03-29T07:45:42.365Z,98258.69
2023-03-29T07:48:15.264Z,98256.41
2023-03-29T07:50:45.692Z,98255.63
2023-03-29T07:53:15.249Z,98252.38
2023-03-29T07:55:47.913Z,98247.53
2023-03-29T07:58:17.972Z,98249.34
2023-03-29T08:00:49.685Z,98248.22
2023-03-29T08:03:21.472Z,98247.22
2023-03-29T08:05:54.102Z,98251.94
2023-03-29T08:08:24.330Z,98243.81
2023-03-29T08:10:54.791Z,98244.81
2023-03-29T08:13:24.329Z,98244.00
2023-03-29T08:15:54.331Z,98245.97
2023-03-29T08:18:25.076Z,98250.53
2023-03-29T08:20:57.386Z,98255.09
2023-03-29T08:23:27.776Z,98249.22
2023-03-29T08:25:58.486Z,98247.78
2023-03-29T08:28:28.837Z,98251.50
2023-03-29T08:30:58.701Z,98255.22
2023-03-29T08:33:28.349Z,98239.13
2023-03-29T08:35:59.265Z,98235.72
2023-03-29T08:38:28.909Z,98226.75
2023-03-29T08:40:59.049Z,98221.69
2023-03-29T08:44:03.662Z,98233.88
2023-03-29T08:46:42.815Z,98237.59
2023-03-29T08:49:15.691Z,98234.50
2023-03-29T08:51:54.570Z,98237.44
2023-03-29T08:54:29.828Z,98229.91
2023-03-29T08:57:13.747Z,98227.97
2023-03-29T08:59:47.503Z,98229.94
2023-03-29T09:02:24.479Z,98238.22
2023-03-29T09:05:00.183Z,98242.94
2023-03-29T09:07:31.949Z,98238.50
2023-03-29T09:10:01.034Z,98232.78
2023-03-29T09:12:50.625Z,98240.06
2023-03-29T09:15:30.029Z,98248.19
2023-03-29T09:18:13.251Z,98241.78
2023-03-29T09:20:52.456Z,98220.41
2023-03-29T09:24:04.740Z,98227.38
2023-03-29T09:26:42.790Z,98216.91
2023-03-29T09:29:41.166Z,98206.41
2023-03-29T09:32:23.084Z,98211.75
2023-03-29T09:35:04.959Z,98212.84
2023-03-29T09:37:38.598Z,98215.94
2023-03-29T09:40:17.900Z,98208.84
2023-03-29T09:42:51.848Z,98198.19
2023-03-29T09:45:21.972Z,98188.81
2023-03-29T09:47:59.452Z,98178.69
2023-03-29T09:50:36.906Z,98187.69
2023-03-29T09:53:06.691Z,98175.56
2023-03-29T09:55:41.221Z,98172.66
2023-03-29T09:58:18.843Z,98170.44
2023-03-29T10:00:50.324Z,98176.94
2023-03-29T10:03:22.586Z,98172.69
2023-03-29T10:05:56.419Z,98173.97
2023-03-29T10:08:30.958Z,98173.09
2023-03-29T10:11:09.640Z,98164.44
2023-03-29T10:13:48.061Z,98152.97
2023-03-29T10:16:25.160Z,98140.16
2023-03-29T10:18:55.526Z,98156.75
2023-03-29T10:21:26.217Z,98164.13
2023-03-29T10:23:59.812Z,98164.19
2023-03-29T10:26:36.259Z,98162.63
2023-03-29T10:29:09.269Z,98161.06
2023-03-29T10:31:43.181Z,98157.09
2023-03-29T10:34:16.616Z,98153.56
2023-03-29T10:36:50.120Z,98152.06
2023-03-29T10:39:20.984Z,98149.91
2023-03-29T10:41:55.218Z,98158.63
2023-03-29T10:44:37.497Z,98170.75
2023-03-29T10:47:16.884Z,98164.78
2023-03-29T10:49:54.358Z,98167.94
2023-03-29T10:52:25.595Z,98150.06
2023-03-29T10:55:00.112Z,98151.91
2023-03-29T10:57:46.329Z,98162.81
2023-03-29T11:00:24.186Z,98162.88
2023-03-29T11:03:27.746Z,98168.81
2023-03-29T11:06:08.958Z,98172.06
2023-03-29T11:08:56.049Z,98165.97
2023-03-29T11:12:15.623Z,98157.34
2023-03-29T11:15:05.821Z,98151.75
2023-03-29T11:17:56.563Z,98139.91
2023-03-29T11:20:42.595Z,98150.44
2023-03-29T11:23:33.623Z,98142.00
2023-03-29T11:26:17.225Z,98141.63
2023-03-29T11:28:57.262Z,98135.22
2023-03-29T11:31:42.718Z,98136.06
2023-03-29T11:34:32.221Z,98141.72
2023-03-29T11:37:11.996Z,98133.88
2023-03-29T11:39:57.772Z,98142.19
2023-03-29T11:42:33.240Z,98135.31
2023-03-29T11:45:06.571Z,98124.06
2023-03-29T11:47:42.641Z,98122.47
2023-03-29T11:50:23.077Z,98121.47
2023-03-29T11:52:58.819Z,98124.28
2023-03-29T11:55:33.045Z,98121.66
2023-03-29T11:58:10.358Z,98125.50
2023-03-29T12:00:47.018Z,98122.31
2023-03-29T12:03:37.247Z,98128.97
2023-03-29T12:06:15.756Z,98118.69
2023-03-29T12:08:54.600Z,98119.28
2023-03-29T12:11:32.500Z,98116.06
2023-03-29T12:14:13.236Z,98110.81
2023-03-29T12:16:50.209Z,98107.22
2023-03-29T12:19:27.945Z,98100.91
2023-03-29T12:21:59.790Z,98101.16
2023-03-29T12:24:33.497Z,98104.78
2023-03-29T12:27:27.181Z,98101.16
2023-03-29T12:30:48.819Z,98094.91
2023-03-29T12:34:31.129Z,98093.91
2023-03-29T12:37:22.470Z,98092.28
2023-03-29T12:39:53.685Z,98105.41
2023-03-29T12:42:25.737Z,98097.09
2023-03-29T12:45:03.348Z,98095.28
2023-03-29T12:47:47.856Z,98093.06
2023-03-29T12:50:34.846Z,98109.22
2023-03-29T12:53:09.426Z,98088.41
2023-03-29T12:55:56.510Z,98091.63
2023-03-29T12:58:44.370Z,98089.00
2023-03-29T13:01:28.868Z,98093.84
2023-03-29T13:04:16.054Z,98089.38
2023-03-29T13:07:07.711Z,98080.28
2023-03-29T13:09:50.760Z,98085.34
2023-03-29T13:12:27.934Z,98072.00
2023-03-29T13:15:02.082Z,98062.69
2023-03-29T13:17:48.258Z,98064.69
2023-03-29T13:20:42.069Z,98070.53
2023-03-29T13:23:35.010Z,98057.78
2023-03-29T13:26:37.362Z,98063.63
2023-03-29T13:29:50.031Z,98056.72
2023-03-29T13:32:42.541Z,98062.16
2023-03-29T13:35:31.323Z,98049.22
2023-03-29T13:38:16.395Z,98053.25
2023-03-29T13:41:02.929Z,98050.00
2023-03-29T13:43:51.080Z,98058.09
2023-03-29T13:46:38.257Z,98057.88
2023-03-29T13:49:18.098Z,98052.78
2023-03-29T13:52:29.540Z,98066.91
2023-03-29T13:55:06.485Z,98054.41
2023-03-29T13:57:44.048Z,98051.59
2023-03-29T14:00:20.856Z,98060.53
2023-03-29T14:02:56.314Z,98056.72
2023-03-29T14:05:33.057Z,98050.44
2023-03-29T14:08:11.274Z,98042.53
2023-03-29T14:10:45.783Z,98040.34
2023-03-29T14:13:19.831Z,98037.13
2023-03-29T14:15:56.120Z,98037.13
2023-03-29T14:18:29.338Z,98032.66
2023-03-29T14:20:58.579Z,98036.34
2023-03-29T14:23:31.428Z,98033.50
2023-03-29T14:26:12.328Z,98033.75
2023-03-29T14:28:50.475Z,98033.75
2023-03-29T14:31:21.375Z,98022.22
2023-03-29T14:33:54.403Z,98028.31
2023-03-29T14:36:25.689Z,98045.72
2023-03-29T14:38:59.636Z,98032.59
2023-03-29T14:41:32.442Z,98041.66
2023-03-29T14:44:03.282Z,98039.84
2023-03-29T14:46:34.452Z,98031.53
2023-03-29T14:49:05.149Z,98034.16
2023-03-29T14:51:34.984Z,98034.53
2023-03-29T14:54:07.679Z,98035.97
2023-03-29T14:56:37.373Z,98024.22
2023-03-29T14:59:30.194Z,98030.28
2023-03-29T15:01:59.260Z,98021.75
2023-03-29T15:04:36.216Z,98023.41
2023-03-29T15:07:06.089Z,98017.75
2023-03-29T15:09:38.465Z,98014.84
2023-03-29T15:12:09.402Z,98017.88
2023-03-29T15:14:39.535Z,98007.78
2023-03-29T15:17:42.631Z,98007.50
2023-03-29T15:20:23.812Z,98001.44
2023-03-29T15:22:59.969Z,98001.44
2023-03-29T15:25:33.925Z,97995.94
2023-03-29T15:28:03.876Z,98009.47
2023-03-29T15:30:54.174Z,97995.13
2023-03-29T15:33:37.629Z,97990.84
2023-03-29T15:36:09.872Z,97981.53
2023-03-29T15:38:44.997Z,97984.53
2023-03-29T15:41:16.498Z,97983.13
2023-03-29T15:43:46.342Z,97975.41
2023-03-29T15:46:16.796Z,97970.94
2023-03-29T15:48:47.256Z,97959.41
2023-03-29T15:51:17.668Z,97947.47
2023-03-29T15:53:48.233Z,97941.78
2023-03-29T15:56:23.536Z,97953.09
2023-03-29T15:58:52.397Z,97939.53
2023-03-29T16:01:34.530Z,97933.25
2023-03-29T16:04:04.794Z,97937.38
2023-03-29T16:06:35.404Z,97931.53
2023-03-29T16:09:05.796Z,97924.81
2023-03-29T16:11:35.319Z,97913.94
2023-03-29T16:14:03.844Z,97917.50
2023-03-29T16:16:35.872Z,97922.78
2023-03-29T16:19:05.920Z,97910.44
2023-03-29T16:21:35.438Z,97904.53
2023-03-29T16:24:05.530Z,97899.47
2023-03-29T16:26:35.339Z,97909.38
2023-03-29T16:29:05.295Z,97911.38
2023-03-29T16:31:36.625Z,97907.31
2023-03-29T16:34:06.807Z,97901.59
2023-03-29T16:36:36.289Z,97889.50
2023-03-29T16:39:06.294Z,97891.09
2023-03-29T16:41:35.302Z,97882.97
2023-03-29T16:44:05.857Z,97878.53
2023-03-29T16:46:36.354Z,97878.53
2023-03-29T16:49:08.388Z,97874.06
2023-03-29T16:51:37.196Z,97872.47
2023-03-29T16:54:08.292Z,97874.06
2023-03-29T16:56:38.157Z,97869.59
2023-03-29T16:59:08.171Z,97860.91
2023-03-29T17:01:40.782Z,97844.91
2023-03-29T17:04:09.987Z,97851.59
2023-03-29T17:06:38.940Z,97837.63
2023-03-29T17:09:09.243Z,97837.28
2023-03-29T17:11:38.855Z,97842.16
2023-03-29T17:14:08.288Z,97841.78
2023-03-29T17:16:38.741Z,97840.41
2023-03-29T17:19:08.151Z,97851.59
2023-03-29T17:21:38.645Z,97857.25
2023-03-29T17:24:08.792Z,97850.00
2023-03-29T17:26:39.252Z,97851.44
2023-03-29T17:29:08.903Z,97846.81
2023-03-29T17:31:47.789Z,97850.53
2023-03-29T17:34:17.943Z,97848.13
2023-03-29T17:36:47.622Z,97853.00
2023-03-29T17:39:19.238Z,97852.03
2023-03-29T17:41:50.382Z,97845.59
2023-03-29T17:44:20.246Z,97851.69
2023-03-29T17:46:50.616Z,97849.50
2023-03-29T17:49:20.813Z,97852.41
2023-03-29T17:51:50.362Z,97852.41
2023-03-29T17:54:19.858Z,97843.53
2023-03-29T17:56:49.900Z,97846.78
2023-03-29T17:59:19.960Z,97844.00
2023-03-29T18:01:51.556Z,97833.28
2023-03-29T18:04:20.537Z,97847.09
2023-03-29T18:06:50.483Z,97839.00
2023-03-29T18:09:20.315Z,97838.03
2023-03-29T18:11:49.923Z,97840.06
2023-03-29T18:14:19.379Z,97834.84
2023-03-29T18:16:50.103Z,97835.47
2023-03-29T18:19:18.916Z,97830.06
2023-03-29T18:21:48.307Z,97838.94
2023-03-29T18:24:17.392Z,97838.78
2023-03-29T18:26:47.018Z,97832.50
2023-03-29T18:29:15.898Z,97835.78
2023-03-29T18:31:45.994Z,97835.59
2023-03-29T18:34:16.962Z,97844.88
2023-03-29T18:36:45.890Z,97837.81
2023-03-29T18:39:14.915Z,97840.25
2023-03-29T18:41:44.544Z,97845.91
2023-03-29T18:44:14.646Z,97842.91
2023-03-29T18:46:44.818Z,97835.44
2023-03-29T18:49:16.280Z,97837.88
2023-03-29T18:51:46.308Z,97839.50
2023-03-29T18:54:15.826Z,97837.50
2023-03-29T18:56:45.120Z,97841.34
2023-03-29T18:59:14.670Z,97834.88
2023-03-29T19:01:43.696Z,97822.19
2023-03-29T19:04:13.957Z,97831.47
2023-03-29T19:06:44.392Z,97825.44
2023-03-29T19:09:13.946Z,97828.66
2023-03-29T19:11:44.192Z,97820.59
2023-03-29T19:14:13.594Z,97827.28
2023-03-29T19:16:43.200Z,97824.84
2023-03-29T19:19:12.837Z,97826.06
2023-03-29T19:21:43.584Z,97821.41
2023-03-29T19:24:13.643Z,97830.69
2023-03-29T19:26:43.664Z,97825.88
2023-03-29T19:29:12.553Z,97821.44
2023-03-29T19:31:41.586Z,97817.41
2023-03-29T19:34:11.786Z,97816.19
2023-03-29T19:36:40.580Z,97808.13
2023-03-29T19:39:10.786Z,97810.56
2023-03-29T19:41:41.806Z,97800.47
2023-03-29T19:44:11.072Z,97799.06
2023-03-29T19:46:41.097Z,97801.09
2023-03-29T19:49:13.638Z,97799.69
2023-03-29T19:51:42.883Z,97795.63
2023-03-29T19:54:14.452Z,97798.88
2023-03-29T19:56:43.098Z,97791.78
2023-03-29T19:59:15.315Z,97792.00
2023-03-29T20:01:50.810Z,97782.72
2023-03-29T20:04:20.927Z,97790.78
2023-03-29T20:06:50.564Z,97787.75
2023-03-29T20:09:21.883Z,97788.75
2023-03-29T20:11:50.889Z,97782.28
2023-03-29T20:14:19.880Z,97778.06
2023-03-29T20:16:51.334Z,97777.25
2023-03-29T20:19:24.636Z,97780.28
2023-03-29T20:21:58.008Z,97773.41
2023-03-29T20:24:28.847Z,97778.25
2023-03-29T20:26:58.883Z,97764.56
2023-03-29T20:29:27.875Z,97765.75
2023-03-29T20:31:58.840Z,97769.75
2023-03-29T20:34:28.119Z,97760.50
2023-03-29T20:37:01.316Z,97763.53
2023-03-29T20:39:35.201Z,97762.94
2023-03-29T20:42:05.336Z,97756.47
2023-03-29T20:44:35.353Z,97755.84
2023-03-29T20:47:06.622Z,97756.47
2023-03-29T20:49:38.113Z,97750.81
2023-03-29T20:52:10.704Z,97747.56
2023-03-29T20:54:41.215Z,97753.63
2023-03-29T20:57:14.636Z,97759.06
2023-03-29T20:59:44.797Z,97751.59
2023-03-29T21:02:17.090Z,97757.84
2023-03-29T21:04:50.406Z,97747.56
2023-03-29T21:07:20.548Z,97744.94
2023-03-29T21:09:51.861Z,97739.13
2023-03-29T21:12:21.445Z,97738.31
2023-03-29T21:14:52.013Z,97730.03
2023-03-29T21:17:20.821Z,97739.09
2023-03-29T21:19:50.280Z,97733.88
2023-03-29T21:22:19.427Z,97731.66
2023-03-29T21:24:48.437Z,97730.22
2023-03-29T21:27:19.770Z,97727.19
2023-03-29T21:29:50.172Z,97724.78
2023-03-29T21:32:18.569Z,97723.34
2023-03-29T21:34:48.525Z,97723.34
2023-03-29T21:37:18.613Z,97718.31
2023-03-29T21:39:47.563Z,97712.47
2023-03-29T21:42:19.527Z,97726.97
2023-03-29T21:44:48.881Z,97718.09
2023-03-29T21:47:17.786Z,97716.69
2023-03-29T21:49:46.576Z,97724.69
2023-03-29T21:52:17.137Z,97714.63
2023-03-29T21:54:46.083Z,97711.44
2023-03-29T21:57:15.644Z,97720.25
2023-03-29T21:59:46.365Z,97718.03
2023-03-29T22:02:15.386Z,97715.63
2023-03-29T22:04:44.710Z,97715.63
2023-03-29T22:07:14.359Z,97718.44
2023-03-29T22:09:44.771Z,97731.69
2023-03-29T22:12:15.791Z,97726.69
2023-03-29T22:14:47.249Z,97719.22
2023-03-29T22:17:17.235Z,97722.22
2023-03-29T22:19:48.029Z,97719.00
2023-03-29T22:22:18.124Z,97719.97
2023-03-29T22:24:48.497Z,97735.06
2023-03-29T22:27:18.533Z,97730.22
2023-03-29T22:29:50.206Z,97730.22
2023-03-29T22:32:21.061Z,97710.72
2023-03-29T22:34:50.054Z,97705.66
2023-03-29T22:37:23.112Z,97704.63
2023-03-29T22:39:52.352Z,97699.81
2023-03-29T22:42:21.904Z,97680.50
2023-03-29T22:44:52.733Z,97684.94
2023-03-29T22:47:22.830Z,97685.94
2023-03-29T22:49:53.422Z,97684.50
2023-03-29T22:52:22.305Z,97682.88
2023-03-29T22:54:52.759Z,97670.47
2023-03-29T22:57:22.334Z,97668.03
2023-03-29T22:59:53.132Z,97668.41
2023-03-29T23:02:22.654Z,97681.44
2023-03-29T23:04:53.673Z,97674.59
2023-03-29T23:07:23.666Z,97670.38
2023-03-29T23:09:54.121Z,97671.19
2023-03-29T23:12:24.608Z,97672.97
2023-03-29T23:14:56.366Z,97663.56
2023-03-29T23:17:26.657Z,97655.09
2023-03-29T23:19:55.959Z,97652.22
2023-03-29T23:22:26.437Z,97641.38
2023-03-29T23:24:55.842Z,97643.34
2023-03-29T23:27:26.728Z,97632.91
2023-03-29T23:29:59.581Z,97625.28
2023-03-29T23:32:30.094Z,97628.88
2023-03-29T23:35:00.918Z,97626.66
2023-03-29T23:37:31.428Z,97617.75
2023-03-29T23:40:02.520Z,97605.91
2023-03-29T23:42:31.795Z,97610.31
2023-03-29T23:45:04.361Z,97602.06
2023-03-29T23:47:34.918Z,97607.88
2023-03-29T23:50:05.398Z,97602.47
2023-03-29T23:52:34.693Z,97605.28
2023-03-29T23:55:04.394Z,97612.47
2023-03-29T23:57:35.706Z,97606.63
